createdAt,value
2022-08-24T00:00:37.691Z,1.77
2022-08-24T00:03:04.832Z,1.10
2022-08-24T00:05:32.060Z,1.20
2022-08-24T00:07:59.271Z,2.00
2022-08-24T00:10:26.780Z,0.90
2022-08-24T00:12:53.850Z,1.07
2022-08-24T00:15:21.889Z,1.43
2022-08-24T00:17:48.941Z,1.27
2022-08-24T00:20:16.476Z,1.00
2022-08-24T00:22:43.827Z,1.13
2022-08-24T00:25:12.573Z,1.10
2022-08-24T00:27:41.395Z,1.30
2022-08-24T00:30:11.414Z,1.20
2022-08-24T00:32:38.434Z,1.57
2022-08-24T00:35:07.370Z,1.20
2022-08-24T00:37:35.269Z,1.20
2022-08-24T00:40:08.576Z,1.10
2022-08-24T00:42:35.750Z,1.17
2022-08-24T00:45:02.722Z,1.10
2022-08-24T00:47:37.472Z,1.47
2022-08-24T00:50:10.085Z,1.10
2022-08-24T00:52:43.557Z,1.40
2022-08-24T00:55:15.778Z,1.17
2022-08-24T00:57:46.794Z,1.43
2022-08-24T01:00:18.459Z,1.53
2022-08-24T01:02:51.423Z,1.40
2022-08-24T01:05:19.362Z,1.70
2022-08-24T01:07:50.767Z,1.87
2022-08-24T01:10:27.431Z,1.40
2022-08-24T01:13:00.673Z,1.47
2022-08-24T01:15:38.659Z,1.33
2022-08-24T01:18:37.183Z,1.43
2022-08-24T01:21:42.930Z,1.30
2022-08-24T01:24:13.953Z,1.37
2022-08-24T01:26:45.365Z,1.40
2022-08-24T01:29:18.697Z,1.70
2022-08-24T01:31:47.299Z,1.57
2022-08-24T01:34:15.042Z,1.50
2022-08-24T01:36:55.983Z,1.60
2022-08-24T01:39:32.997Z,1.47
2022-08-24T01:42:01.637Z,1.43
2022-08-24T01:44:31.312Z,1.70
2022-08-24T01:46:58.521Z,2.20
2022-08-24T01:49:29.937Z,2.13
2022-08-24T01:51:59.277Z,1.90
2022-08-24T01:54:26.552Z,1.70
2022-08-24T01:56:54.005Z,1.40
2022-08-24T01:59:21.485Z,1.43
2022-08-24T02:01:55.219Z,1.70
2022-08-24T02:04:22.819Z,1.90
2022-08-24T02:06:50.236Z,2.60
2022-08-24T02:09:17.973Z,1.87
2022-08-24T02:11:45.116Z,1.77
2022-08-24T02:14:14.612Z,2.47
2022-08-24T02:16:42.487Z,1.90
2022-08-24T02:19:09.687Z,2.03
2022-08-24T02:21:38.322Z,1.80
2022-08-24T02:24:07.853Z,1.93
2022-08-24T02:26:35.269Z,2.80
2022-08-24T02:29:03.443Z,2.70
2022-08-24T02:31:31.730Z,2.90
2022-08-24T02:33:58.913Z,2.93
2022-08-24T02:36:26.723Z,2.73
2022-08-24T02:38:58.227Z,2.90
2022-08-24T02:41:25.992Z,2.80
2022-08-24T02:43:54.742Z,2.00
2022-08-24T02:46:26.053Z,2.00
2022-08-24T02:48:58.089Z,2.13
2022-08-24T02:51:44.864Z,2.40
2022-08-24T02:54:19.641Z,2.50
2022-08-24T02:56:49.483Z,2.73
2022-08-24T02:59:17.349Z,2.90
2022-08-24T03:01:45.685Z,2.60
2022-08-24T03:04:13.929Z,2.43
2022-08-24T03:06:42.420Z,2.70
2022-08-24T03:09:09.741Z,2.77
2022-08-24T03:11:36.990Z,3.10
2022-08-24T03:14:04.203Z,3.03
2022-08-24T03:16:31.782Z,2.90
2022-08-24T03:18:59.700Z,2.80
2022-08-24T03:21:28.483Z,3.20
2022-08-24T03:23:56.847Z,3.00
2022-08-24T03:26:24.261Z,3.20
2022-08-24T03:28:52.865Z,3.37
2022-08-24T03:31:20.610Z,3.13
2022-08-24T03:33:50.374Z,2.70
2022-08-24T03:36:18.124Z,2.77
2022-08-24T03:38:45.302Z,2.67
2022-08-24T03:41:12.656Z,2.53
2022-08-24T03:43:46.722Z,2.80
2022-08-24T03:46:26.201Z,2.93
2022-08-24T03:48:58.142Z,2.67
2022-08-24T03:51:27.340Z,3.03
2022-08-24T03:53:56.056Z,3.10
2022-08-24T03:56:25.676Z,2.70
2022-08-24T03:58:53.729Z,2.93
2022-08-24T04:01:21.212Z,2.70
2022-08-24T04:03:50.613Z,2.73
2022-08-24T04:06:19.919Z,3.00
2022-08-24T04:08:47.624Z,3.30
2022-08-24T04:11:17.971Z,3.00
2022-08-24T04:13:46.760Z,2.77
2022-08-24T04:16:17.382Z,2.70
2022-08-24T04:18:45.723Z,2.60
2022-08-24T04:21:26.725Z,2.80
2022-08-24T04:23:54.969Z,3.33
2022-08-24T04:26:44.292Z,2.90
2022-08-24T04:29:16.681Z,2.53
2022-08-24T04:31:48.743Z,2.47
2022-08-24T04:34:18.410Z,2.80
2022-08-24T04:36:46.787Z,3.00
2022-08-24T04:39:14.928Z,3.20
2022-08-24T04:41:47.658Z,3.00
2022-08-24T04:44:19.078Z,3.17
2022-08-24T04:46:46.812Z,2.63
2022-08-24T04:49:13.861Z,3.03
2022-08-24T04:51:40.902Z,2.93
2022-08-24T04:54:09.062Z,2.57
2022-08-24T04:56:37.002Z,3.10
2022-08-24T04:59:06.013Z,2.63
2022-08-24T05:01:34.197Z,2.93
2022-08-24T05:04:04.608Z,2.67
2022-08-24T05:06:32.770Z,2.37
2022-08-24T05:09:01.037Z,2.73
2022-08-24T05:11:29.104Z,2.47
2022-08-24T05:13:58.076Z,2.30
2022-08-24T05:16:26.325Z,2.47
2022-08-24T05:18:54.719Z,2.13
2022-08-24T05:21:23.817Z,2.53
2022-08-24T05:23:53.121Z,2.50
2022-08-24T05:26:24.350Z,2.67
2022-08-24T05:29:02.681Z,2.57
2022-08-24T05:31:45.062Z,2.47
2022-08-24T05:34:14.052Z,2.83
2022-08-24T05:36:42.652Z,2.47
2022-08-24T05:39:18.213Z,2.40
2022-08-24T05:41:51.859Z,2.40
2022-08-24T05:44:27.904Z,2.13
2022-08-24T05:46:59.653Z,2.63
2022-08-24T05:49:27.624Z,2.83
2022-08-24T05:51:55.157Z,3.30
2022-08-24T05:54:23.439Z,3.33
2022-08-24T05:57:04.666Z,3.00
2022-08-24T05:59:38.470Z,3.57
2022-08-24T06:02:14.286Z,3.87
2022-08-24T06:04:41.858Z,3.53
2022-08-24T06:07:11.507Z,3.80
2022-08-24T06:09:43.166Z,3.93
2022-08-24T06:12:14.669Z,3.77
2022-08-24T06:14:47.766Z,4.27
2022-08-24T06:17:17.986Z,4.80
2022-08-24T06:19:45.334Z,4.97
2022-08-24T06:22:12.327Z,4.73
2022-08-24T06:25:00.528Z,4.73
2022-08-24T06:27:28.779Z,4.87
2022-08-24T06:30:00.797Z,4.57
2022-08-24T06:32:53.997Z,4.07
2022-08-24T06:35:28.792Z,4.30
2022-08-24T06:37:57.496Z,3.80
2022-08-24T06:40:26.012Z,4.03
2022-08-24T06:42:54.334Z,3.80
2022-08-24T06:45:37.976Z,3.90
2022-08-24T06:48:06.114Z,3.43
2022-08-24T06:50:34.003Z,3.70
2022-08-24T06:53:01.461Z,2.40
2022-08-24T06:55:30.424Z,2.13
2022-08-24T06:57:57.509Z,1.93
2022-08-24T07:00:25.497Z,2.20
2022-08-24T07:02:52.727Z,1.90
2022-08-24T07:05:19.801Z,2.30
2022-08-24T07:08:10.609Z,1.63
2022-08-24T07:10:37.996Z,2.10
2022-08-24T07:13:05.355Z,1.70
2022-08-24T07:15:34.386Z,2.10
2022-08-24T07:18:14.814Z,1.83
2022-08-24T07:20:46.585Z,1.97
2022-08-24T07:23:19.504Z,2.20
2022-08-24T07:25:49.634Z,2.20
2022-08-24T07:28:31.677Z,2.00
2022-08-24T07:31:00.590Z,2.00
2022-08-24T07:33:30.357Z,1.63
2022-08-24T07:35:57.498Z,1.57
2022-08-24T07:38:24.790Z,1.67
2022-08-24T07:43:42.883Z,1.73
2022-08-24T07:46:10.726Z,1.70
2022-08-24T07:48:37.889Z,1.73
2022-08-24T07:51:13.990Z,1.93
2022-08-24T07:53:53.478Z,1.80
2022-08-24T07:56:28.532Z,1.80
2022-08-24T07:58:57.970Z,1.70
2022-08-24T08:01:25.072Z,1.40
2022-08-24T08:03:53.384Z,1.53
2022-08-24T08:06:20.435Z,1.63
2022-08-24T08:08:50.497Z,1.40
2022-08-24T08:11:18.055Z,1.30
2022-08-24T08:13:46.650Z,1.10
2022-08-24T08:16:13.989Z,1.40
2022-08-24T08:18:42.038Z,1.37
2022-08-24T08:21:32.107Z,1.30
2022-08-24T08:24:16.725Z,1.10
2022-08-24T08:26:51.894Z,1.20
2022-08-24T08:29:35.695Z,1.00
2022-08-24T08:32:03.764Z,1.30
2022-08-24T08:34:31.492Z,1.47
2022-08-24T08:36:59.701Z,1.10
2022-08-24T08:39:27.967Z,1.30
2022-08-24T08:42:14.979Z,0.80
2022-08-24T08:45:14.346Z,1.43
2022-08-24T08:48:12.472Z,1.03
2022-08-24T08:51:12.119Z,1.00
2022-08-24T08:54:05.320Z,1.60
2022-08-24T08:56:59.683Z,1.07
2022-08-24T09:00:07.287Z,1.00
2022-08-24T09:02:59.784Z,1.10
2022-08-24T09:05:58.758Z,0.60
2022-08-24T09:08:57.351Z,0.77
2022-08-24T09:11:33.736Z,0.60
2022-08-24T09:14:31.435Z,1.07
2022-08-24T09:17:13.480Z,0.60
2022-08-24T09:20:13.307Z,0.77
2022-08-24T09:22:49.722Z,0.90
2022-08-24T09:25:31.977Z,1.00
2022-08-24T09:28:43.768Z,1.07
2022-08-24T09:31:23.730Z,1.10
2022-08-24T09:34:22.080Z,1.00
2022-08-24T09:37:20.082Z,0.90
2022-08-24T09:40:19.525Z,0.97
2022-08-24T09:43:05.224Z,1.10
2022-08-24T09:45:53.791Z,0.73
2022-08-24T09:48:51.202Z,0.83
2022-08-24T09:51:49.346Z,1.10
2022-08-24T09:54:19.092Z,1.00
2022-08-24T09:57:12.192Z,0.83
2022-08-24T10:00:09.996Z,0.80
2022-08-24T10:02:52.294Z,0.90
2022-08-24T10:05:30.451Z,1.20
2022-08-24T10:08:18.769Z,0.83
2022-08-24T10:11:14.705Z,0.70
2022-08-24T10:13:59.677Z,0.87
2022-08-24T10:16:32.528Z,1.10
2022-08-24T10:19:36.092Z,1.13
2022-08-24T10:22:23.150Z,1.00
2022-08-24T10:25:06.207Z,0.90
2022-08-24T10:27:42.139Z,1.03
2022-08-24T10:30:34.045Z,0.80
2022-08-24T10:33:21.782Z,0.70
2022-08-24T10:36:11.977Z,0.80
2022-08-24T10:39:34.780Z,0.90
2022-08-24T10:42:49.180Z,0.90
2022-08-24T10:45:40.522Z,1.00
2022-08-24T10:48:13.489Z,0.87
2022-08-24T10:50:46.359Z,0.90
2022-08-24T10:53:28.054Z,1.10
2022-08-24T10:56:16.117Z,1.00
2022-08-24T10:58:46.089Z,0.80
2022-08-24T11:01:32.389Z,1.00
2022-08-24T11:04:05.059Z,0.73
2022-08-24T11:06:41.681Z,1.07
2022-08-24T11:09:19.713Z,1.00
2022-08-24T11:11:49.694Z,1.10
2022-08-24T11:14:16.740Z,0.87
2022-08-24T11:16:46.629Z,0.67
2022-08-24T11:19:30.005Z,0.70
2022-08-24T11:22:01.911Z,0.70
2022-08-24T11:24:43.235Z,1.00
2022-08-24T11:27:24.398Z,0.80
2022-08-24T11:29:51.633Z,0.80
2022-08-24T11:32:33.184Z,1.20
2022-08-24T11:35:04.751Z,0.90
2022-08-24T11:37:37.384Z,0.80
2022-08-24T11:40:06.745Z,0.83
2022-08-24T11:42:52.478Z,0.90
2022-08-24T11:45:40.563Z,1.00
2022-08-24T11:48:57.646Z,0.60
2022-08-24T11:51:49.164Z,0.80
2022-08-24T11:54:28.021Z,0.80
2022-08-24T11:57:18.391Z,0.80
2022-08-24T12:00:20.657Z,0.70
2022-08-24T12:03:23.717Z,0.70
2022-08-24T12:05:55.291Z,0.80
2022-08-24T12:08:39.646Z,1.00
2022-08-24T12:11:06.621Z,0.70
2022-08-24T12:13:45.226Z,0.90
2022-08-24T12:16:18.528Z,0.80
2022-08-24T12:19:07.674Z,0.90
2022-08-24T12:21:38.587Z,0.70
2022-08-24T12:24:16.477Z,0.77
2022-08-24T12:26:46.250Z,0.90
2022-08-24T12:29:21.553Z,0.80
2022-08-24T12:31:57.950Z,0.80
2022-08-24T12:34:51.804Z,1.00
2022-08-24T12:37:32.467Z,0.90
2022-08-24T12:40:34.889Z,0.80
2022-08-24T12:43:19.916Z,0.90
2022-08-24T12:45:47.510Z,0.80
2022-08-24T12:48:20.282Z,0.90
2022-08-24T12:51:02.344Z,0.60
2022-08-24T12:53:47.959Z,0.80
2022-08-24T12:56:50.675Z,1.10
2022-08-24T12:59:25.831Z,0.80
2022-08-24T13:02:04.588Z,0.70
2022-08-24T13:04:40.491Z,0.87
2022-08-24T13:07:19.755Z,1.07
2022-08-24T13:09:57.712Z,0.90
2022-08-24T13:12:33.601Z,0.80
2022-08-24T13:15:23.912Z,0.80
2022-08-24T13:18:00.271Z,1.00
2022-08-24T13:20:38.348Z,0.90
2022-08-24T13:23:11.325Z,1.00
2022-08-24T13:25:47.435Z,0.90
2022-08-24T13:28:20.714Z,1.07
2022-08-24T13:30:56.415Z,0.60
2022-08-24T13:33:53.935Z,0.93
2022-08-24T13:36:45.244Z,1.00
2022-08-24T13:39:15.958Z,0.80
2022-08-24T13:42:12.379Z,0.90
2022-08-24T13:45:16.816Z,1.20
2022-08-24T13:47:59.146Z,1.07
2022-08-24T13:50:47.877Z,1.00
2022-08-24T13:53:39.904Z,0.70
2022-08-24T13:56:45.160Z,0.87
2022-08-24T13:59:19.004Z,1.10
2022-08-24T14:02:07.809Z,1.00
2022-08-24T14:04:49.257Z,0.70
2022-08-24T14:07:24.264Z,0.90
2022-08-24T14:10:06.001Z,0.70
2022-08-24T14:12:33.337Z,0.97
2022-08-24T14:15:09.160Z,0.90
2022-08-24T14:18:12.856Z,0.90
2022-08-24T14:20:39.844Z,0.87
2022-08-24T14:23:34.216Z,0.83
2022-08-24T14:26:44.036Z,0.90
2022-08-24T14:29:19.991Z,0.70
2022-08-24T14:31:53.170Z,0.90
2022-08-24T14:34:57.728Z,0.77
2022-08-24T14:37:34.838Z,0.80
2022-08-24T14:40:21.373Z,1.23
2022-08-24T14:43:00.391Z,0.80
2022-08-24T14:45:59.331Z,0.97
2022-08-24T14:49:00.304Z,0.90
2022-08-24T14:51:33.023Z,0.70
2022-08-24T14:54:23.136Z,0.80
2022-08-24T14:57:21.716Z,0.63
2022-08-24T14:59:55.328Z,0.90
2022-08-24T15:02:51.414Z,0.90
2022-08-24T15:05:29.507Z,0.90
2022-08-24T15:08:07.859Z,1.03
2022-08-24T15:10:44.804Z,0.70
2022-08-24T15:13:25.961Z,0.93
2022-08-24T15:16:42.304Z,0.70
2022-08-24T15:19:30.133Z,0.57
2022-08-24T15:22:08.251Z,0.77
2022-08-24T15:25:04.999Z,0.97
2022-08-24T15:27:37.921Z,0.80
2022-08-24T15:30:07.661Z,0.80
2022-08-24T15:32:54.065Z,0.80
2022-08-24T15:35:36.529Z,0.80
2022-08-24T15:38:21.647Z,0.90
2022-08-24T15:40:52.812Z,0.90
2022-08-24T15:43:20.654Z,0.60
2022-08-24T15:45:51.389Z,0.83
2022-08-24T15:48:24.554Z,0.90
2022-08-24T15:50:53.736Z,1.00
2022-08-24T15:53:29.582Z,0.87
2022-08-24T15:55:57.557Z,0.80
2022-08-24T15:58:31.105Z,0.97
2022-08-24T16:01:28.844Z,1.10
2022-08-24T16:04:02.115Z,1.10
2022-08-24T16:06:32.174Z,0.90
2022-08-24T16:09:14.392Z,1.00
2022-08-24T16:11:47.822Z,0.80
2022-08-24T16:14:37.107Z,1.30
2022-08-24T16:17:35.038Z,0.80
2022-08-24T16:20:07.079Z,1.10
2022-08-24T16:22:54.362Z,1.00
2022-08-24T16:25:27.374Z,1.20
2022-08-24T16:28:00.535Z,1.30
2022-08-24T16:30:56.826Z,1.40
2022-08-24T16:33:39.190Z,1.40
2022-08-24T16:36:14.691Z,1.10
2022-08-24T16:38:47.128Z,2.40
2022-08-24T16:41:17.574Z,1.40
2022-08-24T16:43:45.910Z,1.50
2022-08-24T16:46:14.166Z,1.87
2022-08-24T16:48:41.396Z,1.90
2022-08-24T16:51:08.444Z,1.20
2022-08-24T16:53:35.612Z,1.50
2022-08-24T16:56:04.392Z,1.57
2022-08-24T16:58:33.894Z,1.50
2022-08-24T17:01:02.168Z,1.33
2022-08-24T17:03:29.532Z,1.77
2022-08-24T17:05:58.005Z,1.73
2022-08-24T17:08:27.239Z,1.43
2022-08-24T17:10:55.335Z,1.43
2022-08-24T17:13:46.264Z,1.37
2022-08-24T17:16:11.676Z,1.30
2022-08-24T17:18:39.194Z,1.40
2022-08-24T17:21:06.577Z,1.30
2022-08-24T17:23:34.452Z,1.10
2022-08-24T17:26:06.592Z,1.53
2022-08-24T17:28:39.132Z,1.50
2022-08-24T17:31:06.386Z,1.40
2022-08-24T17:33:33.556Z,1.23
2022-08-24T17:36:01.644Z,1.17
2022-08-24T17:38:30.415Z,1.20
2022-08-24T17:40:57.771Z,1.37
2022-08-24T17:43:24.981Z,1.40
2022-08-24T17:45:53.444Z,1.87
2022-08-24T17:48:25.762Z,1.40
2022-08-24T17:50:54.263Z,1.60
2022-08-24T17:53:21.290Z,1.53
2022-08-24T17:55:48.390Z,1.43
2022-08-24T17:58:16.468Z,1.53
2022-08-24T18:00:43.928Z,1.77
2022-08-24T18:03:16.351Z,1.60
2022-08-24T18:05:43.658Z,1.77
2022-08-24T18:08:10.762Z,1.80
2022-08-24T18:10:37.790Z,1.87
2022-08-24T18:13:05.340Z,1.87
2022-08-24T18:15:36.055Z,1.87
2022-08-24T18:18:08.638Z,1.87
2022-08-24T18:20:38.774Z,2.10
2022-08-24T18:23:10.110Z,2.07
2022-08-24T18:25:46.109Z,1.90
2022-08-24T18:28:15.189Z,2.17
2022-08-24T18:30:42.568Z,1.80
2022-08-24T18:33:11.985Z,2.40
2022-08-24T18:35:39.167Z,2.70
2022-08-24T18:38:06.235Z,2.57
2022-08-24T18:40:34.040Z,2.40
2022-08-24T18:43:03.068Z,2.83
2022-08-24T18:45:32.926Z,2.17
2022-08-24T18:47:59.981Z,2.40
2022-08-24T18:50:29.022Z,2.97
2022-08-24T18:52:57.817Z,2.50
2022-08-24T18:55:25.657Z,2.40
2022-08-24T18:57:53.042Z,2.10
2022-08-24T19:00:20.566Z,2.30
2022-08-24T19:02:48.028Z,2.30
2022-08-24T19:05:22.278Z,2.50
2022-08-24T19:07:52.022Z,2.00
2022-08-24T19:10:23.861Z,2.30
2022-08-24T19:12:55.738Z,2.47
2022-08-24T19:15:32.227Z,2.00
2022-08-24T19:18:09.773Z,2.40
2022-08-24T19:20:45.817Z,2.00
2022-08-24T19:23:44.061Z,2.40
2022-08-24T19:26:11.100Z,2.10
2022-08-24T19:28:38.370Z,2.33
2022-08-24T19:31:10.704Z,2.07
2022-08-24T19:33:43.270Z,2.23
2022-08-24T19:36:14.067Z,2.13
2022-08-24T19:38:41.424Z,2.47
2022-08-24T19:41:12.614Z,2.23
2022-08-24T19:44:00.952Z,2.20
2022-08-24T19:46:28.237Z,2.10
2022-08-24T19:48:56.068Z,2.27
2022-08-24T19:51:23.173Z,2.73
2022-08-24T19:53:50.922Z,2.70
2022-08-24T19:56:17.917Z,2.13
2022-08-24T19:58:50.445Z,2.27
2022-08-24T20:01:18.672Z,2.07
2022-08-24T20:03:45.847Z,2.43
2022-08-24T20:06:14.099Z,2.40
2022-08-24T20:08:41.389Z,2.13
2022-08-24T20:11:09.383Z,1.80
2022-08-24T20:13:36.805Z,2.17
2022-08-24T20:16:10.691Z,2.20
2022-08-24T20:18:38.833Z,2.23
2022-08-24T20:21:06.873Z,3.00
2022-08-24T20:23:34.086Z,2.60
2022-08-24T20:26:03.385Z,2.53
2022-08-24T20:28:51.954Z,2.47
2022-08-24T20:31:21.385Z,2.90
2022-08-24T20:33:57.375Z,2.50
2022-08-24T20:36:48.765Z,2.30
2022-08-24T20:39:20.308Z,2.50
2022-08-24T20:41:47.341Z,2.90
2022-08-24T20:44:14.741Z,2.27
2022-08-24T20:46:42.311Z,2.50
2022-08-24T20:49:15.560Z,2.10
2022-08-24T20:51:44.598Z,2.03
2022-08-24T20:54:11.732Z,2.53
2022-08-24T20:56:38.909Z,2.20
2022-08-24T20:59:09.789Z,2.40
2022-08-24T21:01:37.715Z,2.23
2022-08-24T21:04:05.651Z,2.40
2022-08-24T21:06:34.063Z,2.60
2022-08-24T21:09:01.104Z,2.50
2022-08-24T21:11:28.350Z,2.03
2022-08-24T21:13:55.542Z,2.40
2022-08-24T21:16:22.585Z,2.30
2022-08-24T21:18:49.767Z,2.43
2022-08-24T21:21:16.824Z,2.40
2022-08-24T21:23:44.218Z,2.60
2022-08-24T21:26:14.072Z,4.50
2022-08-24T21:28:42.977Z,2.00
2022-08-24T21:31:10.961Z,2.43
2022-08-24T21:33:56.542Z,2.47
2022-08-24T21:36:25.471Z,2.27
2022-08-24T21:38:54.598Z,2.10
2022-08-24T21:41:22.851Z,2.43
2022-08-24T21:43:50.555Z,1.83
2022-08-24T21:46:17.970Z,2.17
2022-08-24T21:48:45.665Z,2.70
2022-08-24T21:51:12.748Z,2.23
2022-08-24T21:53:39.757Z,2.30
2022-08-24T21:56:07.098Z,2.30
2022-08-24T21:58:34.177Z,2.30
2022-08-24T22:01:02.380Z,2.27
2022-08-24T22:03:33.213Z,2.47
2022-08-24T22:06:09.293Z,2.17
2022-08-24T22:08:37.897Z,1.80
2022-08-24T22:11:05.960Z,2.90
2022-08-24T22:13:34.164Z,2.47
2022-08-24T22:16:01.320Z,2.37
2022-08-24T22:18:28.800Z,1.80
2022-08-24T22:20:55.928Z,2.40
2022-08-24T22:23:24.227Z,2.37
2022-08-24T22:25:53.480Z,2.23
2022-08-24T22:28:20.986Z,2.30
2022-08-24T22:30:49.394Z,2.23
2022-08-24T22:33:17.296Z,2.30
2022-08-24T22:35:45.604Z,2.23
2022-08-24T22:38:12.849Z,2.30
2022-08-24T22:40:39.987Z,2.67
2022-08-24T22:43:07.142Z,2.30
2022-08-24T22:45:34.255Z,2.40
2022-08-24T22:48:01.284Z,2.57
2022-08-24T22:50:28.592Z,2.77
2022-08-24T22:52:55.593Z,2.63
2022-08-24T22:55:23.405Z,2.47
2022-08-24T22:57:51.523Z,2.93
2022-08-24T23:00:19.126Z,2.70
2022-08-24T23:02:46.250Z,2.47
2022-08-24T23:05:13.517Z,2.20
2022-08-24T23:07:40.587Z,2.80
2022-08-24T23:10:08.540Z,2.50
2022-08-24T23:12:35.578Z,2.30
2022-08-24T23:15:03.097Z,2.20
2022-08-24T23:17:30.313Z,2.50
2022-08-24T23:20:00.723Z,2.27
2022-08-24T23:22:37.738Z,2.60
2022-08-24T23:25:07.624Z,2.77
2022-08-24T23:27:37.783Z,2.70
2022-08-24T23:30:11.807Z,2.63
2022-08-24T23:32:39.930Z,3.03
2022-08-24T23:35:07.353Z,2.63
2022-08-24T23:37:34.573Z,2.40
2022-08-24T23:40:01.680Z,2.60
2022-08-24T23:42:28.900Z,2.70
2022-08-24T23:44:56.006Z,2.70
2022-08-24T23:47:24.120Z,2.87
2022-08-24T23:49:51.187Z,2.37
2022-08-24T23:52:28.525Z,2.40
2022-08-24T23:55:19.940Z,2.50
2022-08-24T23:57:46.371Z,2.33
